Terminal Aerodrome Forecast
Issued by NWS Grand Junction, CO

Home | Current Version | Previous Version | Text Only | Print | Product List | Glossary On
Versions: 1 2 3 4 5 6 7 8 9 10 11 12 13 14 15 16 17 18 19 20 21 22 23 24 25 26 27
000
FTUS45 KGJT 230105 AAB
TAFGJT
TAF AMD
KGJT 230105Z 2301/2324 05006KT P6SM SKC
     FM230600 08005KT P6SM FEW220
     FM231500 VRB05KT P6SM FEW220
     FM232000 24007KT P6SM FEW140 BKN220=

USA.gov is the U.S. government's official web portal to all federal, state and local government web resources and services.